createdAt,value
2018-03-07T00:00:31.246Z,88.01
2018-03-07T00:03:00.323Z,88.03
2018-03-07T00:05:28.684Z,88.06
2018-03-07T00:07:57.037Z,87.96
2018-03-07T00:10:26.128Z,87.80
2018-03-07T00:12:54.435Z,87.93
2018-03-07T00:15:22.781Z,87.88
2018-03-07T00:17:51.087Z,87.72
2018-03-07T00:20:19.447Z,87.72
2018-03-07T00:22:47.785Z,87.77
2018-03-07T00:25:16.896Z,87.85
2018-03-07T00:27:45.632Z,87.97
2018-03-07T00:30:13.970Z,87.92
2018-03-07T00:32:42.294Z,87.95
2018-03-07T00:35:10.623Z,87.90
2018-03-07T00:37:39.384Z,87.80
2018-03-07T00:40:08.473Z,87.76
2018-03-07T00:42:37.585Z,87.69
2018-03-07T00:45:05.933Z,87.54
2018-03-07T00:47:35.055Z,87.46
2018-03-07T00:50:03.374Z,87.41
2018-03-07T00:52:31.692Z,87.28
2018-03-07T00:55:01.188Z,87.21
2018-03-07T00:57:31.053Z,87.05
2018-03-07T00:59:59.354Z,86.93
2018-03-07T01:02:27.681Z,86.75
2018-03-07T01:04:56.041Z,86.54
2018-03-07T01:07:25.124Z,86.12
2018-03-07T01:09:53.873Z,85.97
2018-03-07T01:12:22.197Z,85.90
2018-03-07T01:14:51.282Z,85.91
2018-03-07T01:17:19.646Z,85.70
2018-03-07T01:19:47.964Z,85.98
2018-03-07T01:22:16.305Z,86.31
2018-03-07T01:24:45.020Z,86.60
2018-03-07T01:27:14.129Z,86.54
2018-03-07T01:29:42.858Z,86.37
2018-03-07T01:32:11.225Z,86.30
2018-03-07T01:34:39.544Z,86.22
2018-03-07T01:37:08.628Z,86.11
2018-03-07T01:39:36.989Z,85.98
2018-03-07T01:42:05.300Z,85.84
2018-03-07T01:44:34.424Z,85.60
2018-03-07T01:47:02.722Z,85.61
2018-03-07T01:49:31.074Z,85.26
2018-03-07T01:52:02.342Z,85.21
2018-03-07T01:54:30.702Z,84.89
2018-03-07T01:56:59.019Z,84.71
2018-03-07T01:59:27.332Z,84.62
2018-03-07T02:01:56.431Z,84.62
2018-03-07T02:04:24.784Z,84.57
2018-03-07T02:06:53.109Z,84.49
2018-03-07T02:09:21.482Z,84.49
2018-03-07T02:11:49.805Z,84.38
2018-03-07T02:14:18.127Z,84.37
2018-03-07T02:16:46.469Z,84.37
2018-03-07T02:19:14.803Z,84.32
2018-03-07T02:21:43.143Z,84.31
2018-03-07T02:24:12.220Z,84.35
2018-03-07T02:26:40.587Z,84.37
2018-03-07T02:29:08.936Z,84.39
2018-03-07T02:31:37.247Z,84.41
2018-03-07T02:34:05.579Z,84.38
2018-03-07T02:36:34.714Z,84.32
2018-03-07T02:39:03.035Z,84.39
2018-03-07T02:41:31.363Z,84.43
2018-03-07T02:43:59.723Z,84.42
2018-03-07T02:46:28.042Z,84.46
2018-03-07T02:48:57.118Z,84.46
2018-03-07T02:51:25.462Z,84.40
2018-03-07T02:53:53.843Z,84.37
2018-03-07T02:56:22.910Z,84.36
2018-03-07T02:58:51.216Z,84.33
2018-03-07T03:01:19.523Z,84.28
2018-03-07T03:03:47.882Z,84.27
2018-03-07T03:06:16.195Z,84.30
2018-03-07T03:08:45.302Z,84.33
2018-03-07T03:11:13.650Z,84.32
2018-03-07T03:13:41.941Z,84.36
2018-03-07T03:16:11.041Z,84.38
2018-03-07T03:18:40.104Z,84.50
2018-03-07T03:21:08.437Z,84.59
2018-03-07T03:23:36.757Z,84.68
2018-03-07T03:26:05.062Z,84.70
2018-03-07T03:28:33.386Z,84.73
2018-03-07T03:31:01.738Z,84.84
2018-03-07T03:33:30.081Z,84.82
2018-03-07T03:35:58.426Z,84.92
2018-03-07T03:38:26.741Z,85.02
2018-03-07T03:40:55.085Z,84.91
2018-03-07T03:43:23.399Z,84.87
2018-03-07T03:45:51.717Z,84.87
2018-03-07T03:48:20.075Z,84.85
2018-03-07T03:50:48.384Z,84.95
2018-03-07T03:53:16.738Z,85.16
2018-03-07T03:55:45.057Z,85.27
2018-03-07T03:58:13.402Z,85.33
2018-03-07T04:00:41.717Z,85.25
2018-03-07T04:03:10.063Z,85.21
2018-03-07T04:05:38.364Z,85.07
2018-03-07T04:08:06.726Z,84.98
2018-03-07T04:10:35.074Z,84.98
2018-03-07T04:13:03.430Z,84.80
2018-03-07T04:15:32.510Z,84.87
2018-03-07T04:18:00.860Z,84.71
2018-03-07T04:20:29.179Z,84.38
2018-03-07T04:22:58.254Z,84.16
2018-03-07T04:25:26.601Z,83.90
2018-03-07T04:27:54.918Z,83.70
2018-03-07T04:30:23.257Z,83.63
2018-03-07T04:32:51.561Z,83.64
2018-03-07T04:35:19.907Z,83.66
2018-03-07T04:37:48.258Z,83.98
2018-03-07T04:40:16.568Z,84.16
2018-03-07T04:42:44.910Z,84.52
2018-03-07T04:45:13.306Z,84.64
2018-03-07T04:47:41.620Z,84.72
2018-03-07T04:50:09.935Z,84.78
2018-03-07T04:52:39.058Z,84.70
2018-03-07T04:55:07.374Z,84.70
2018-03-07T04:57:35.684Z,84.83
2018-03-07T05:00:04.798Z,85.18
2018-03-07T05:02:33.124Z,85.34
2018-03-07T05:05:01.537Z,85.42
2018-03-07T05:07:30.104Z,85.50
2018-03-07T05:09:59.178Z,85.52
2018-03-07T05:12:27.518Z,85.50
2018-03-07T05:14:56.634Z,85.47
2018-03-07T05:17:24.942Z,85.17
2018-03-07T05:19:54.020Z,85.24
2018-03-07T05:22:22.362Z,85.16
2018-03-07T05:24:50.672Z,85.09
2018-03-07T05:27:19.010Z,85.02
2018-03-07T05:29:47.328Z,84.96
2018-03-07T05:32:15.674Z,84.56
2018-03-07T05:34:43.992Z,84.55
2018-03-07T05:37:12.350Z,84.45
2018-03-07T05:39:40.717Z,84.54
2018-03-07T05:42:09.035Z,84.51
2018-03-07T05:44:38.114Z,84.43
2018-03-07T05:47:06.453Z,84.41
2018-03-07T05:49:34.756Z,84.50
2018-03-07T05:52:03.110Z,84.59
2018-03-07T05:54:31.419Z,84.63
2018-03-07T05:56:59.776Z,84.65
2018-03-07T05:59:28.132Z,84.64
2018-03-07T06:01:57.209Z,84.70
2018-03-07T06:04:25.538Z,84.91
2018-03-07T06:06:53.880Z,84.92
2018-03-07T06:09:22.205Z,84.74
2018-03-07T06:11:50.561Z,84.56
2018-03-07T06:14:18.872Z,84.62
2018-03-07T06:16:47.949Z,84.46
2018-03-07T06:19:16.288Z,84.18
2018-03-07T06:21:45.375Z,83.98
2018-03-07T06:24:13.909Z,83.96
2018-03-07T06:26:42.255Z,83.83
2018-03-07T06:29:10.566Z,83.70
2018-03-07T06:31:38.929Z,83.65
2018-03-07T06:34:07.252Z,83.56
2018-03-07T06:36:35.596Z,83.46
2018-03-07T06:39:03.961Z,83.47
2018-03-07T06:41:32.280Z,83.38
2018-03-07T06:44:01.354Z,83.22
2018-03-07T06:46:29.710Z,83.19
2018-03-07T06:48:58.069Z,82.98
2018-03-07T06:51:26.375Z,82.90
2018-03-07T06:53:54.721Z,83.08
2018-03-07T06:56:23.030Z,83.11
2018-03-07T06:58:51.382Z,83.19
2018-03-07T07:01:20.567Z,83.40
2018-03-07T07:03:48.922Z,83.56
2018-03-07T07:06:17.245Z,83.60
2018-03-07T07:08:45.598Z,83.52
2018-03-07T07:11:13.903Z,83.44
2018-03-07T07:13:42.249Z,83.55
2018-03-07T07:16:11.362Z,83.34
2018-03-07T07:18:39.681Z,83.01
2018-03-07T07:21:09.159Z,83.00
2018-03-07T07:23:37.544Z,83.11
2018-03-07T07:26:05.895Z,83.09
2018-03-07T07:28:34.196Z,82.72
2018-03-07T07:31:02.501Z,82.28
2018-03-07T07:33:30.837Z,82.04
2018-03-07T07:35:59.144Z,81.93
2018-03-07T07:38:28.241Z,81.83
2018-03-07T07:40:56.553Z,82.00
2018-03-07T07:43:24.977Z,82.07
2018-03-07T07:45:53.269Z,82.21
2018-03-07T07:48:22.382Z,82.25
2018-03-07T07:50:51.464Z,81.80
2018-03-07T07:53:20.568Z,81.89
2018-03-07T07:55:49.639Z,81.83
2018-03-07T07:58:18.381Z,81.53
2018-03-07T08:00:46.721Z,81.97
2018-03-07T08:03:16.546Z,81.75
2018-03-07T08:05:44.899Z,81.81
2018-03-07T08:08:13.216Z,81.77
2018-03-07T08:10:41.530Z,82.10
2018-03-07T08:13:09.869Z,82.13
2018-03-07T08:15:38.209Z,82.18
2018-03-07T08:18:06.593Z,82.66
2018-03-07T08:20:35.727Z,82.70
2018-03-07T08:23:04.049Z,82.26
2018-03-07T08:25:32.396Z,82.37
2018-03-07T08:28:00.704Z,82.02
2018-03-07T08:30:29.041Z,82.02
2018-03-07T08:32:57.348Z,82.31
2018-03-07T08:35:25.678Z,82.57
2018-03-07T08:37:54.004Z,82.47
2018-03-07T08:40:22.309Z,82.68
2018-03-07T08:42:51.398Z,82.23
2018-03-07T08:45:20.456Z,81.96
2018-03-07T08:47:48.795Z,82.12
2018-03-07T08:50:17.112Z,81.84
2018-03-07T08:52:45.461Z,81.80
2018-03-07T08:55:13.782Z,81.90
2018-03-07T08:57:42.079Z,82.26
2018-03-07T09:00:11.612Z,82.28
2018-03-07T09:02:39.933Z,81.72
2018-03-07T09:05:08.262Z,81.42
2018-03-07T09:07:36.611Z,81.46
2018-03-07T09:10:04.925Z,81.21
2018-03-07T09:12:33.289Z,80.92
2018-03-07T09:15:01.613Z,80.85
2018-03-07T09:17:29.969Z,80.94
2018-03-07T09:19:58.292Z,80.46
2018-03-07T09:22:26.619Z,80.23
2018-03-07T09:24:54.911Z,80.20
2018-03-07T09:27:23.224Z,80.04
2018-03-07T09:29:51.801Z,79.77
2018-03-07T09:32:20.113Z,78.97
2018-03-07T09:34:48.456Z,78.02
2018-03-07T09:37:16.779Z,78.65
2018-03-07T09:39:45.115Z,78.30
2018-03-07T09:42:13.445Z,77.44
2018-03-07T09:44:41.743Z,77.11
2018-03-07T09:47:10.261Z,77.09
2018-03-07T09:49:38.624Z,77.44
2018-03-07T09:52:06.942Z,76.70
2018-03-07T09:54:35.266Z,76.82
2018-03-07T09:57:03.626Z,76.52
2018-03-07T09:59:31.954Z,77.19
2018-03-07T10:02:00.329Z,77.67
2018-03-07T10:04:28.625Z,77.67
2018-03-07T10:06:56.978Z,77.70
2018-03-07T10:09:26.064Z,77.03
2018-03-07T10:11:54.427Z,75.80
2018-03-07T10:14:22.759Z,74.57
2018-03-07T10:16:51.125Z,75.37
2018-03-07T10:19:19.463Z,75.86
2018-03-07T10:21:47.781Z,74.97
2018-03-07T10:24:16.147Z,74.78
2018-03-07T10:26:44.484Z,74.11
2018-03-07T10:29:12.831Z,73.17
2018-03-07T10:31:41.148Z,73.94
2018-03-07T10:34:09.504Z,73.87
2018-03-07T10:36:37.832Z,74.29
2018-03-07T10:39:06.946Z,73.67
2018-03-07T10:41:35.275Z,74.12
2018-03-07T10:44:03.641Z,74.16
2018-03-07T10:46:31.958Z,73.87
2018-03-07T10:49:00.322Z,73.76
2018-03-07T10:51:28.653Z,74.51
2018-03-07T10:53:57.045Z,74.26
2018-03-07T10:56:25.387Z,73.62
2018-03-07T10:58:53.721Z,72.59
2018-03-07T11:01:22.132Z,72.42
2018-03-07T11:03:50.472Z,72.90
2018-03-07T11:06:18.847Z,72.45
2018-03-07T11:08:47.154Z,71.74
2018-03-07T11:11:15.496Z,71.96
2018-03-07T11:13:43.860Z,70.82
2018-03-07T11:16:12.220Z,72.18
2018-03-07T11:18:40.518Z,72.51
2018-03-07T11:21:08.833Z,71.91
2018-03-07T11:23:37.958Z,72.94
2018-03-07T11:26:06.291Z,72.32
2018-03-07T11:28:34.644Z,72.14
2018-03-07T11:31:02.950Z,71.93
2018-03-07T11:33:31.304Z,73.21
2018-03-07T11:35:59.609Z,73.25
2018-03-07T11:38:27.967Z,73.72
2018-03-07T11:40:56.278Z,73.15
2018-03-07T11:43:25.376Z,73.65
2018-03-07T11:45:54.491Z,74.07
2018-03-07T11:48:22.793Z,75.95
2018-03-07T11:50:51.132Z,76.46
2018-03-07T11:53:19.443Z,75.95
2018-03-07T11:55:47.781Z,75.79
2018-03-07T11:58:16.107Z,74.74
2018-03-07T12:00:44.479Z,74.03
2018-03-07T12:03:12.791Z,74.09
2018-03-07T12:05:41.915Z,73.89
2018-03-07T12:08:10.231Z,72.43
2018-03-07T12:10:39.511Z,70.89
2018-03-07T12:13:07.829Z,70.58
2018-03-07T12:15:36.161Z,70.84
2018-03-07T12:18:04.471Z,72.67
2018-03-07T12:20:32.821Z,72.58
2018-03-07T12:23:01.135Z,74.16
2018-03-07T12:25:29.439Z,73.96
2018-03-07T12:27:58.551Z,73.87
2018-03-07T12:30:26.850Z,73.09
2018-03-07T12:32:55.224Z,71.41
2018-03-07T12:35:23.570Z,71.43
2018-03-07T12:37:51.921Z,70.19
2018-03-07T12:40:20.225Z,68.79
2018-03-07T12:42:49.334Z,68.48
2018-03-07T12:45:17.655Z,69.12
2018-03-07T12:47:46.003Z,71.03
2018-03-07T12:50:14.338Z,71.05
2018-03-07T12:52:43.429Z,72.22
2018-03-07T12:55:11.770Z,72.90
2018-03-07T12:57:40.080Z,74.50
2018-03-07T13:00:08.439Z,74.49
2018-03-07T13:02:36.787Z,75.24
2018-03-07T13:05:05.137Z,75.96
2018-03-07T13:07:33.506Z,75.28
2018-03-07T13:10:02.226Z,74.78
2018-03-07T13:12:30.550Z,75.25
2018-03-07T13:14:59.283Z,75.35
2018-03-07T13:17:27.599Z,74.55
2018-03-07T13:19:56.349Z,74.82
2018-03-07T13:22:24.670Z,75.46
2018-03-07T13:24:53.381Z,76.50
2018-03-07T13:27:22.487Z,77.39
2018-03-07T13:29:50.806Z,78.03
2018-03-07T13:32:19.150Z,78.82
2018-03-07T13:34:47.493Z,78.43
2018-03-07T13:37:15.822Z,78.41
2018-03-07T13:39:44.161Z,78.42
2018-03-07T13:42:13.243Z,78.50
2018-03-07T13:44:41.605Z,78.10
2018-03-07T13:47:09.919Z,77.38
2018-03-07T13:49:39.019Z,76.55
2018-03-07T13:52:07.379Z,76.73
2018-03-07T13:54:36.452Z,76.92
2018-03-07T13:57:04.777Z,76.83
2018-03-07T13:59:33.102Z,76.69
2018-03-07T14:02:01.464Z,76.70
2018-03-07T14:04:29.794Z,76.38
2018-03-07T14:06:58.901Z,76.33
2018-03-07T14:09:27.262Z,76.53
2018-03-07T14:11:56.394Z,76.40
2018-03-07T14:14:24.704Z,76.46
2018-03-07T14:16:53.026Z,76.08
2018-03-07T14:19:21.368Z,75.19
2018-03-07T14:21:49.686Z,74.72
2018-03-07T14:24:18.035Z,75.14
2018-03-07T14:26:47.138Z,75.10
2018-03-07T14:29:15.483Z,75.35
2018-03-07T14:31:43.790Z,76.19
2018-03-07T14:34:12.918Z,77.32
2018-03-07T14:36:41.243Z,77.65
2018-03-07T14:39:09.569Z,77.29
2018-03-07T14:41:37.916Z,78.09
2018-03-07T14:44:07.014Z,78.35
2018-03-07T14:46:36.142Z,78.83
2018-03-07T14:49:04.458Z,78.82
2018-03-07T14:51:32.796Z,78.32
2018-03-07T14:54:01.165Z,78.05
2018-03-07T14:56:30.250Z,78.12
2018-03-07T14:58:58.588Z,78.16
2018-03-07T15:01:26.942Z,77.71
2018-03-07T15:03:55.267Z,77.25
2018-03-07T15:06:24.350Z,77.00
2018-03-07T15:08:52.747Z,76.64
2018-03-07T15:11:21.876Z,75.43
2018-03-07T15:13:50.185Z,74.90
2018-03-07T15:16:18.534Z,74.45
2018-03-07T15:18:46.872Z,74.96
2018-03-07T15:21:15.500Z,75.35
2018-03-07T15:23:43.844Z,74.94
2018-03-07T15:26:12.199Z,74.81
2018-03-07T15:28:41.316Z,74.94
2018-03-07T15:31:09.698Z,75.02
2018-03-07T15:33:38.021Z,74.85
2018-03-07T15:36:06.361Z,75.06
2018-03-07T15:38:34.681Z,75.82
2018-03-07T15:41:03.036Z,75.85
2018-03-07T15:43:31.337Z,75.90
2018-03-07T15:45:59.715Z,76.47
2018-03-07T15:48:28.030Z,75.69
2018-03-07T15:50:56.347Z,76.16
2018-03-07T15:53:24.681Z,76.53
2018-03-07T15:55:52.992Z,77.18
2018-03-07T15:58:21.326Z,77.67
2018-03-07T16:00:50.785Z,77.58
2018-03-07T16:03:19.141Z,77.82
2018-03-07T16:05:47.537Z,78.22
2018-03-07T16:08:15.894Z,78.62
2018-03-07T16:10:44.251Z,79.05
2018-03-07T16:13:12.555Z,79.32
2018-03-07T16:15:40.879Z,79.64
2018-03-07T16:18:09.234Z,80.07
2018-03-07T16:20:37.594Z,80.14
2018-03-07T16:23:05.915Z,80.32
2018-03-07T16:25:34.285Z,80.46
2018-03-07T16:28:02.588Z,80.76
2018-03-07T16:30:31.663Z,80.92
2018-03-07T16:33:00.786Z,80.94
2018-03-07T16:35:29.903Z,80.86
2018-03-07T16:37:58.204Z,80.82
2018-03-07T16:40:26.549Z,81.04
2018-03-07T16:42:54.873Z,81.44
2018-03-07T16:45:24.846Z,81.62
2018-03-07T16:47:53.290Z,81.55
2018-03-07T16:50:22.388Z,81.47
2018-03-07T16:52:51.489Z,81.51
2018-03-07T16:55:21.168Z,81.50
2018-03-07T16:57:49.497Z,81.62
2018-03-07T17:00:17.826Z,81.90
2018-03-07T17:02:46.160Z,82.02
2018-03-07T17:05:15.295Z,82.24
2018-03-07T17:07:43.643Z,82.35
2018-03-07T17:10:12.017Z,82.80
2018-03-07T17:12:41.099Z,82.77
2018-03-07T17:15:09.400Z,82.82
2018-03-07T17:17:37.762Z,82.77
2018-03-07T17:20:06.141Z,82.78
2018-03-07T17:22:34.464Z,82.92
2018-03-07T17:25:02.769Z,82.95
2018-03-07T17:27:31.120Z,82.94
2018-03-07T17:29:59.442Z,82.77
2018-03-07T17:32:27.785Z,82.95
2018-03-07T17:34:56.945Z,82.98
2018-03-07T17:37:25.272Z,83.10
2018-03-07T17:39:54.397Z,83.17
2018-03-07T17:42:22.794Z,83.20
2018-03-07T17:44:51.512Z,83.17
2018-03-07T17:47:19.884Z,83.14
2018-03-07T17:49:49.315Z,83.04
2018-03-07T17:52:19.130Z,83.07
2018-03-07T17:54:47.465Z,82.99
2018-03-07T17:57:16.217Z,82.97
2018-03-07T17:59:44.544Z,82.98
2018-03-07T18:02:13.416Z,82.98
2018-03-07T18:04:42.540Z,83.17
2018-03-07T18:07:11.875Z,83.24
2018-03-07T18:09:40.224Z,83.16
2018-03-07T18:12:09.348Z,83.25
2018-03-07T18:14:38.564Z,83.28
2018-03-07T18:17:06.950Z,83.18
2018-03-07T18:19:35.279Z,83.08
2018-03-07T18:22:05.232Z,83.15
2018-03-07T18:24:33.603Z,83.09
2018-03-07T18:27:01.977Z,82.93
2018-03-07T18:29:30.302Z,82.77
2018-03-07T18:31:58.658Z,82.60
2018-03-07T18:34:26.994Z,82.58
2018-03-07T18:36:55.344Z,82.54
2018-03-07T18:39:24.440Z,82.55
2018-03-07T18:41:53.559Z,82.51
2018-03-07T18:44:21.885Z,82.78
2018-03-07T18:46:50.280Z,82.86
2018-03-07T18:49:18.604Z,82.82
2018-03-07T18:51:47.849Z,82.59
2018-03-07T18:54:17.004Z,82.31
2018-03-07T18:56:46.199Z,82.18
2018-03-07T18:59:14.740Z,82.28
2018-03-07T19:01:43.088Z,82.22
2018-03-07T19:04:11.460Z,82.14
2018-03-07T19:06:41.506Z,82.01
2018-03-07T19:09:10.142Z,82.03
2018-03-07T19:11:38.503Z,81.88
2018-03-07T19:14:06.857Z,81.70
2018-03-07T19:16:35.944Z,81.54
2018-03-07T19:19:04.272Z,81.38
2018-03-07T19:21:32.598Z,81.43
2018-03-07T19:24:02.121Z,81.36
2018-03-07T19:26:31.197Z,81.69
2018-03-07T19:28:59.542Z,82.02
2018-03-07T19:31:28.244Z,82.19
2018-03-07T19:33:56.594Z,82.33
2018-03-07T19:36:24.951Z,82.35
2018-03-07T19:38:53.904Z,82.39
2018-03-07T19:41:23.050Z,82.43
2018-03-07T19:43:51.439Z,82.38
2018-03-07T19:46:19.807Z,82.34
2018-03-07T19:48:48.155Z,82.16
2018-03-07T19:51:16.532Z,82.16
2018-03-07T19:53:45.657Z,82.11
2018-03-07T19:56:14.024Z,82.04
2018-03-07T19:58:42.387Z,82.13
2018-03-07T20:01:10.722Z,82.10
2018-03-07T20:03:39.151Z,82.01
2018-03-07T20:06:07.527Z,81.93
2018-03-07T20:08:35.864Z,81.86
2018-03-07T20:11:04.230Z,81.87
2018-03-07T20:13:32.649Z,81.85
2018-03-07T20:16:01.771Z,81.78
2018-03-07T20:18:30.118Z,81.69
2018-03-07T20:20:59.278Z,81.67
2018-03-07T20:23:27.939Z,81.63
2018-03-07T20:25:56.351Z,81.58
2018-03-07T20:28:24.709Z,81.42
2018-03-07T20:30:53.107Z,81.29
2018-03-07T20:33:21.424Z,81.12
2018-03-07T20:35:49.804Z,80.86
2018-03-07T20:38:18.157Z,80.71
2018-03-07T20:40:46.511Z,80.72
2018-03-07T20:43:14.918Z,80.56
2018-03-07T20:45:44.382Z,80.57
2018-03-07T20:48:12.752Z,80.67
2018-03-07T20:50:41.763Z,80.72
2018-03-07T20:53:10.835Z,80.84
2018-03-07T20:55:39.209Z,80.97
2018-03-07T20:58:07.563Z,80.92
2018-03-07T21:00:35.899Z,80.88
2018-03-07T21:03:04.280Z,80.79
2018-03-07T21:05:32.611Z,80.87
2018-03-07T21:08:00.948Z,80.78
2018-03-07T21:10:29.342Z,80.75
2018-03-07T21:12:57.674Z,80.99
2018-03-07T21:15:25.978Z,81.38
2018-03-07T21:17:55.423Z,81.62
2018-03-07T21:20:23.753Z,81.71
2018-03-07T21:22:52.920Z,81.73
2018-03-07T21:25:21.301Z,81.83
2018-03-07T21:27:49.675Z,82.05
2018-03-07T21:30:18.046Z,82.20
2018-03-07T21:32:46.408Z,82.28
2018-03-07T21:35:14.743Z,82.22
2018-03-07T21:37:43.129Z,82.16
2018-03-07T21:40:12.300Z,82.28
2018-03-07T21:42:40.628Z,82.49
2018-03-07T21:45:09.047Z,82.97
2018-03-07T21:47:37.474Z,82.82
2018-03-07T21:50:05.798Z,82.92
2018-03-07T21:52:34.114Z,82.83
2018-03-07T21:55:02.475Z,82.95
2018-03-07T21:57:30.794Z,83.03
2018-03-07T21:59:59.162Z,82.93
2018-03-07T22:02:28.240Z,82.83
2018-03-07T22:04:57.359Z,82.70
2018-03-07T22:07:25.745Z,82.47
2018-03-07T22:09:54.060Z,82.25
2018-03-07T22:12:22.413Z,81.96
2018-03-07T22:14:50.734Z,81.81
2018-03-07T22:17:19.081Z,81.61
2018-03-07T22:19:47.406Z,81.47
2018-03-07T22:22:16.559Z,81.21
2018-03-07T22:24:44.878Z,80.75
2018-03-07T22:27:13.966Z,80.76
2018-03-07T22:29:42.334Z,80.75
2018-03-07T22:32:10.707Z,80.56
2018-03-07T22:34:39.066Z,80.61
2018-03-07T22:37:07.382Z,80.51
2018-03-07T22:39:36.527Z,80.47
2018-03-07T22:42:04.848Z,80.64
2018-03-07T22:44:33.198Z,80.77
2018-03-07T22:47:01.534Z,80.77
2018-03-07T22:49:29.895Z,80.86
2018-03-07T22:51:58.996Z,81.27
2018-03-07T22:54:27.367Z,81.41
2018-03-07T22:56:56.436Z,81.49
2018-03-07T22:59:24.810Z,81.58
2018-03-07T23:01:53.151Z,81.59
2018-03-07T23:04:21.503Z,81.63
2018-03-07T23:06:50.574Z,81.86
2018-03-07T23:09:19.685Z,81.86
2018-03-07T23:11:48.037Z,81.94
2018-03-07T23:14:16.406Z,82.03
2018-03-07T23:16:44.742Z,82.19
2018-03-07T23:19:13.071Z,82.25
2018-03-07T23:21:41.484Z,82.40
2018-03-07T23:24:09.781Z,82.89
2018-03-07T23:26:38.246Z,83.75
2018-03-07T23:29:06.582Z,83.70
2018-03-07T23:31:34.919Z,83.84
2018-03-07T23:34:03.282Z,84.08
2018-03-07T23:36:31.605Z,84.59
2018-03-07T23:38:59.925Z,84.76
2018-03-07T23:41:29.059Z,85.44
2018-03-07T23:43:57.499Z,85.48
2018-03-07T23:46:26.576Z,85.91
2018-03-07T23:48:54.903Z,86.11
2018-03-07T23:51:24.030Z,86.02
2018-03-07T23:53:52.392Z,86.17
2018-03-07T23:56:20.756Z,85.99
2018-03-07T23:58:49.057Z,86.56
